AirNav   TITAN Aviation Fuels
 
 595 users online  

7MY9 Petes Airport
Dexter, Minnesota, USA

GOING TO DEXTER?


FAA INFORMATION EFFECTIVE 15 JULY 2021

Location

FAA Identifier: 7MY9
Lat/Long: 43-44-48.1800N 092-43-28.2000W
43-44.803000N 092-43.470000W
43.7467167,-92.7245000
(estimated)
Elevation: 1337 ft. / 408 m (estimated)
From city: 2 miles NW of DEXTER, MN
Time zone: UTC -5 (UTC -6 during Standard Time)
Zip code: 55926

Airport Operations

Airport use: Private use. Permission required prior to landing
Activation date: 10/2009
Control tower: no
ARTCC: MINNEAPOLIS CENTER
FSS: PRINCETON FLIGHT SERVICE STATION
Attendance: UNATNDD
Segmented circle: no

Airport Communications

WX AWOS-3 at AUM (10 nm SW): 119.025 (507-433-6667)
WX ASOS at RST (14 nm NE): 120.5 (507-424-8146)
WX AWOS-3 at TOB (17 nm N): 119.075 (507-374-6369)

Nearby radio navigation aids

VOR radial/distance  VOR name  Freq  Var
RSTr244/5.9ROCHESTER VOR/DME112.0005E
JAYr039/13.3AUSTIN VOR/DME108.2000E
AELr081/28.3ALBERT LEA VOR/DME109.8001E
FOWr133/39.1HALFWAY VOR/DME111.2002E

Airport Services

Runway Information

Runway 9/27

Dimensions: 2600 x 95 ft. / 792 x 29 m
Surface: turf
RUNWAY 9  RUNWAY 27
Traffic pattern: leftleft

Airport Ownership and Management from official FAA records

Ownership: Privately-owned
Owner: WAYNE PETERSON
26887 665TH AVE
DEXTER, MN 55926
Phone 507-584-6479
Manager: WAYNE PETERSON
26887 665TH AVE
DEXTER, MN 55926
Phone 507-584-6479

Airport Operational Statistics

Aircraft based on the field: 1
Single engine airplanes: 1
    

Additional Remarks

DO NOT CHART PER MINNESOTA DEPARTMENT OF TRANSPORTATION
FOR CD CTC MINNEAPOLIS ARTCC AT 651-463-5588.

Instrument Procedures

There are no published instrument procedures at 7MY9.

Some nearby airports with instrument procedures:

KAUM - Austin Municipal Airport (10 nm SW)
KRST - Rochester International Airport (14 nm NE)
KTOB - Dodge Center Airport (17 nm N)
KFKA - Fillmore County Airport (24 nm E)
KAEL - Albert Lea Municipal Airport (28 nm W)
 
Loc | Ops | Rwys | IFR | FBO | Links
Com | Nav | Svcs | Stats | Notes
Aerial photo
No photo
 
Sectional chart

 
Airport distance calculator
Flying to Petes Airport? Find the distance to fly.

From to 7MY9

Sunrise and sunset
Times for 29-Jul-2021
 Local
(UTC-5)
 Zulu
(UTC)
Morning civil twilight05:2410:24
Sunrise05:5810:58
Sunset20:3701:37
Evening civil twilight21:1002:10

Current date and time
Zulu (UTC)  29-Jul-2021 11:16:35
Local (UTC-5)  29-Jul-2021 06:16:35
 
METAR
KAUM 
10nm SW 
291055Z AUTO 34006KT 10SM CLR 24/22 A2997 RMK AO2
KRST 
13nm NE 
291054Z 34008KT 10SM CLR 23/21 A2996 RMK AO2 SLP136 T02280211
KTOB 
17nm N 
291055Z AUTO 33005KT 10SM CLR 22/20 A2997 RMK AO2 PWINO
K9MN 
19nm NE 
291055Z AUTO 30006KT 10SM CLR 24/21 A2996 RMK AO1 T02350212
TAF
KRST 
13nm NE 
290635Z 2907/3006 28007KT P6SM BKN027 BKN070 FM290900 33012KT P6SM SCT080 FM300000 04008KT P6SM SCT120
NOTAMs
Click for the latest NOTAMs
NOTAMs are issued by the DoD/FAA and will open in a separate window not controlled by AirNav.

 

 
 

Would you like to see your business listed on this page?

 If your business provides an interesting product or service to pilots, flight crews, aircraft, or users of the Petes Airport, you should consider listing it here.  To start the listing process, click on the button below
 
Add a business
 

Other Pages about Petes Airport

Update a link
 
Copyright © AirNav, LLC. All rights reserved. Privacy Policy  Contact